Terminal Aerodrome Forecast
Issued by NWS Wilmington, NC

Home | Current Version | Previous Version | Text Only | Print | Product List | Glossary On
Versions: 1 2 3 4 5 6 7 8 9 10 11 12 13 14
000
FTUS42 KILM 192300
TAFMYR
TAF
KMYR 192334Z 2000/2024 06012KT P6SM VCSH SCT025 BKN100 BKN200
      TEMPO 2001/2005 5SM -SHRA BKN025
     FM201600 05011G21KT P6SM VCSH BKN020 BKN100
     FM201900 07012G23KT 3SM SHRA OVC020
     FM202100 05010KT P6SM VCSH SCT020 BKN100
      AMD LTD TO CLD VIS AND WIND 2004/2011=

USA.gov is the U.S. government's official web portal to all federal, state and local government web resources and services.